createdAt,value
2023-10-23T00:01:01.486Z,6.85
2023-10-23T00:03:28.274Z,6.32
2023-10-23T00:05:54.748Z,6.43
2023-10-23T00:08:21.244Z,6.90
2023-10-23T00:10:47.509Z,7.00
2023-10-23T00:13:13.781Z,5.85
2023-10-23T00:15:40.136Z,6.93
2023-10-23T00:18:06.534Z,6.22
2023-10-23T00:20:32.859Z,5.88
2023-10-23T00:22:59.192Z,6.65
2023-10-23T00:25:25.443Z,6.45
2023-10-23T00:27:51.780Z,6.15
2023-10-23T00:30:18.070Z,5.90
2023-10-23T00:32:44.470Z,6.40
2023-10-23T00:35:10.856Z,5.82
2023-10-23T00:37:37.293Z,6.00
2023-10-23T00:40:03.709Z,5.97
2023-10-23T00:42:29.972Z,6.10
2023-10-23T00:44:56.242Z,5.93
2023-10-23T00:47:22.504Z,5.53
2023-10-23T00:49:48.838Z,5.70
2023-10-23T00:52:15.127Z,5.55
2023-10-23T00:54:41.506Z,5.70
2023-10-23T00:57:08.034Z,5.68
2023-10-23T00:59:34.537Z,5.78
2023-10-23T01:02:00.826Z,5.38
2023-10-23T01:04:27.167Z,5.78
2023-10-23T01:06:53.518Z,4.95
2023-10-23T01:09:19.840Z,5.38
2023-10-23T01:11:46.158Z,5.93
2023-10-23T01:14:12.441Z,5.30
2023-10-23T01:16:38.731Z,5.18
2023-10-23T01:19:05.043Z,5.03
2023-10-23T01:21:31.531Z,5.00
2023-10-23T01:23:57.822Z,5.45
2023-10-23T01:26:26.228Z,4.80
2023-10-23T01:28:52.481Z,5.25
2023-10-23T01:31:18.939Z,4.50
2023-10-23T01:33:45.325Z,5.15
2023-10-23T01:36:11.648Z,5.28
2023-10-23T01:38:37.879Z,4.70
2023-10-23T01:41:04.169Z,4.90
2023-10-23T01:43:30.456Z,4.65
2023-10-23T01:45:56.864Z,4.97
2023-10-23T01:48:23.480Z,4.50
2023-10-23T01:50:49.755Z,4.68
2023-10-23T01:53:16.075Z,4.90
2023-10-23T01:55:42.450Z,4.65
2023-10-23T02:00:52.649Z,4.75
2023-10-23T02:03:19.120Z,4.60
2023-10-23T02:05:45.567Z,4.22
2023-10-23T02:08:15.550Z,4.18
2023-10-23T02:10:41.865Z,4.40
2023-10-23T02:13:08.158Z,4.30
2023-10-23T02:15:34.520Z,4.18
2023-10-23T02:18:00.871Z,4.60
2023-10-23T02:20:27.198Z,4.20
2023-10-23T02:22:53.495Z,3.80
2023-10-23T02:25:19.847Z,4.68
2023-10-23T02:27:46.160Z,4.05
2023-10-23T02:30:12.428Z,4.18
2023-10-23T02:32:38.976Z,3.90
2023-10-23T02:35:05.465Z,4.53
2023-10-23T02:37:31.916Z,3.88
2023-10-23T02:39:58.319Z,3.88
2023-10-23T02:42:24.829Z,4.32
2023-10-23T02:44:51.120Z,3.97
2023-10-23T02:47:17.398Z,3.75
2023-10-23T02:49:43.748Z,3.92
2023-10-23T02:52:10.242Z,3.88
2023-10-23T02:54:36.587Z,3.72
2023-10-23T02:57:02.917Z,3.85
2023-10-23T02:59:29.360Z,3.88
2023-10-23T03:01:55.691Z,3.88
2023-10-23T03:04:22.007Z,3.70
2023-10-23T03:06:48.687Z,4.20
2023-10-23T03:09:14.976Z,3.60
2023-10-23T03:11:41.466Z,3.90
2023-10-23T03:14:07.698Z,3.90
2023-10-23T03:16:34.069Z,3.50
2023-10-23T03:19:00.452Z,3.40
2023-10-23T03:21:26.811Z,3.67
2023-10-23T03:23:53.111Z,3.83
2023-10-23T03:26:19.393Z,3.50
2023-10-23T03:28:45.802Z,3.70
2023-10-23T03:31:12.363Z,3.58
2023-10-23T03:33:38.630Z,3.67
2023-10-23T03:36:04.943Z,3.65
2023-10-23T03:38:31.221Z,3.72
2023-10-23T03:40:57.561Z,3.53
2023-10-23T03:43:23.868Z,3.33
2023-10-23T03:45:50.684Z,3.40
2023-10-23T03:48:17.081Z,3.42
2023-10-23T03:50:43.365Z,3.20
2023-10-23T03:53:09.652Z,3.47
2023-10-23T03:55:35.937Z,3.20
2023-10-23T03:58:02.326Z,3.33
2023-10-23T04:00:28.752Z,3.20
2023-10-23T04:02:55.092Z,3.67
2023-10-23T04:05:21.675Z,3.17
2023-10-23T04:07:47.959Z,3.17
2023-10-23T04:10:14.371Z,3.22
2023-10-23T04:12:40.741Z,3.28
2023-10-23T04:15:07.075Z,3.03
2023-10-23T04:17:33.401Z,3.28
2023-10-23T04:19:59.712Z,3.33
2023-10-23T04:22:26.128Z,3.00
2023-10-23T04:24:52.588Z,3.08
2023-10-23T04:27:18.905Z,2.83
2023-10-23T04:29:45.146Z,2.97
2023-10-23T04:32:11.403Z,2.97
2023-10-23T04:34:47.639Z,2.83
2023-10-23T04:37:13.885Z,3.20
2023-10-23T04:39:40.436Z,3.13
2023-10-23T04:42:07.150Z,3.03
2023-10-23T04:44:33.761Z,3.00
2023-10-23T04:47:00.093Z,3.03
2023-10-23T04:49:26.429Z,3.05
2023-10-23T04:51:52.728Z,2.95
2023-10-23T04:54:19.042Z,2.90
2023-10-23T04:56:45.366Z,2.80
2023-10-23T04:59:11.656Z,3.28
2023-10-23T05:01:37.988Z,3.00
2023-10-23T05:04:05.215Z,2.78
2023-10-23T05:06:31.693Z,2.70
2023-10-23T05:08:58.256Z,2.85
2023-10-23T05:11:24.567Z,2.90
2023-10-23T05:13:50.860Z,2.78
2023-10-23T05:16:17.336Z,2.88
2023-10-23T05:18:43.760Z,2.60
2023-10-23T05:21:10.223Z,2.63
2023-10-23T05:23:36.551Z,2.88
2023-10-23T05:26:02.802Z,2.85
2023-10-23T05:28:29.114Z,2.63
2023-10-23T05:30:55.403Z,2.70
2023-10-23T05:33:21.742Z,2.70
2023-10-23T05:35:50.408Z,2.50
2023-10-23T05:38:16.672Z,2.78
2023-10-23T05:40:42.972Z,2.70
2023-10-23T05:43:09.687Z,2.97
2023-10-23T05:45:36.221Z,2.58
2023-10-23T05:48:02.571Z,2.95
2023-10-23T05:50:29.052Z,2.60
2023-10-23T05:52:55.300Z,2.58
2023-10-23T05:55:21.570Z,2.67
2023-10-23T05:57:47.876Z,3.05
2023-10-23T06:00:14.211Z,2.53
2023-10-23T06:02:40.824Z,2.67
2023-10-23T06:05:07.724Z,2.42
2023-10-23T06:07:44.092Z,2.22
2023-10-23T06:10:10.548Z,2.83
2023-10-23T06:12:36.876Z,3.00
2023-10-23T06:15:03.457Z,3.88
2023-10-23T06:17:29.801Z,9.95
2023-10-23T06:19:56.171Z,6.32
2023-10-23T06:22:22.531Z,6.60
2023-10-23T06:24:49.042Z,7.03
2023-10-23T06:27:15.443Z,6.90
2023-10-23T06:29:41.834Z,5.90
2023-10-23T06:32:08.189Z,5.80
2023-10-23T06:34:34.540Z,7.05
2023-10-23T06:37:00.816Z,6.22
2023-10-23T06:39:27.071Z,6.32
2023-10-23T06:41:53.504Z,6.40
2023-10-23T06:44:19.835Z,6.40
2023-10-23T06:46:46.197Z,6.68
2023-10-23T06:49:12.545Z,6.18
2023-10-23T06:51:38.997Z,5.90
2023-10-23T06:54:05.346Z,5.95
2023-10-23T06:56:31.742Z,6.90
2023-10-23T06:59:02.003Z,6.07
2023-10-23T07:01:41.641Z,6.03
2023-10-23T07:04:11.300Z,6.25
2023-10-23T07:06:37.864Z,5.70
2023-10-23T07:09:04.178Z,5.15
2023-10-23T07:11:30.579Z,5.93
2023-10-23T07:13:57.185Z,5.60
2023-10-23T07:16:23.570Z,5.05
2023-10-23T07:18:50.418Z,5.22
2023-10-23T07:21:16.805Z,5.43
2023-10-23T07:23:43.215Z,5.05
2023-10-23T07:26:09.639Z,5.35
2023-10-23T07:28:35.991Z,5.78
2023-10-23T07:31:02.285Z,5.22
2023-10-23T07:33:28.607Z,4.65
2023-10-23T07:35:54.950Z,4.85
2023-10-23T07:38:21.353Z,4.57
2023-10-23T07:40:47.637Z,4.95
2023-10-23T07:43:13.996Z,5.15
2023-10-23T07:45:40.458Z,4.93
2023-10-23T07:48:06.993Z,4.85
2023-10-23T07:50:33.259Z,5.20
2023-10-23T07:52:59.570Z,4.88
2023-10-23T07:55:25.894Z,4.70
2023-10-23T07:57:52.232Z,4.70
2023-10-23T08:00:18.552Z,5.15
2023-10-23T08:02:44.952Z,5.20
2023-10-23T08:05:11.682Z,5.00
2023-10-23T08:07:38.191Z,4.95
2023-10-23T08:10:04.602Z,5.22
2023-10-23T08:12:30.931Z,5.35
2023-10-23T08:14:57.243Z,4.60
2023-10-23T08:17:39.282Z,5.03
2023-10-23T08:20:08.711Z,5.72
2023-10-23T08:22:35.260Z,5.38
2023-10-23T08:25:01.614Z,4.82
2023-10-23T08:27:27.929Z,4.10
2023-10-23T08:29:54.303Z,4.30
2023-10-23T08:32:21.166Z,5.30
2023-10-23T08:34:55.864Z,4.85
2023-10-23T08:37:22.178Z,4.88
2023-10-23T08:39:48.524Z,5.53
2023-10-23T08:42:15.065Z,4.70
2023-10-23T08:44:41.325Z,4.90
2023-10-23T08:47:07.631Z,5.20
2023-10-23T08:49:33.925Z,5.22
2023-10-23T08:52:00.230Z,5.10
2023-10-23T08:54:26.692Z,4.72
2023-10-23T08:56:52.937Z,4.53
2023-10-23T08:59:19.240Z,4.68
2023-10-23T09:01:45.573Z,5.45
2023-10-23T09:04:12.876Z,5.13
2023-10-23T09:06:39.976Z,5.47
2023-10-23T09:09:06.410Z,5.13
2023-10-23T09:11:33.013Z,4.88
2023-10-23T09:13:59.442Z,5.97
2023-10-23T09:16:25.874Z,5.38
2023-10-23T09:18:52.382Z,5.15
2023-10-23T09:21:18.761Z,5.05
2023-10-23T09:23:45.021Z,5.72
2023-10-23T09:26:11.273Z,6.18
2023-10-23T09:28:46.200Z,5.45
2023-10-23T09:31:14.465Z,4.80
2023-10-23T09:33:40.951Z,5.13
2023-10-23T09:36:07.402Z,5.10
2023-10-23T09:38:33.827Z,4.45
2023-10-23T09:41:00.078Z,5.95
2023-10-23T09:43:27.612Z,5.70
2023-10-23T09:45:54.143Z,5.35
2023-10-23T09:48:20.726Z,5.45
2023-10-23T09:50:47.768Z,4.97
2023-10-23T09:53:14.073Z,5.53
2023-10-23T09:55:40.437Z,5.07
2023-10-23T09:58:06.723Z,6.38
2023-10-23T10:00:33.920Z,6.28
2023-10-23T10:03:00.365Z,6.47
2023-10-23T10:05:26.762Z,5.70
2023-10-23T10:07:53.048Z,5.95
2023-10-23T10:10:19.334Z,5.38
2023-10-23T10:12:45.699Z,5.45
2023-10-23T10:15:12.007Z,5.40
2023-10-23T10:17:38.832Z,6.10
2023-10-23T10:20:06.001Z,5.47
2023-10-23T10:22:32.314Z,5.38
2023-10-23T10:24:58.609Z,5.90
2023-10-23T10:27:25.071Z,5.30
2023-10-23T10:29:51.354Z,5.57
2023-10-23T10:32:17.790Z,5.75
2023-10-23T10:34:44.198Z,5.45
2023-10-23T10:37:25.377Z,6.38
2023-10-23T10:39:52.894Z,5.25
2023-10-23T10:42:19.533Z,5.32
2023-10-23T10:44:45.809Z,5.55
2023-10-23T10:47:12.142Z,5.53
2023-10-23T10:49:38.665Z,5.13
2023-10-23T10:52:05.114Z,5.15
2023-10-23T10:54:31.373Z,5.63
2023-10-23T10:56:57.642Z,5.90
2023-10-23T10:59:23.868Z,5.28
2023-10-23T11:01:50.223Z,5.32
2023-10-23T11:04:16.706Z,5.25
2023-10-23T11:06:43.028Z,4.97
2023-10-23T11:09:09.313Z,5.40
2023-10-23T11:11:35.597Z,5.13
2023-10-23T11:14:03.978Z,5.30
2023-10-23T11:16:30.720Z,5.20
2023-10-23T11:18:57.161Z,4.90
2023-10-23T11:21:23.495Z,4.65
2023-10-23T11:23:49.865Z,4.43
2023-10-23T11:26:16.258Z,5.15
2023-10-23T11:28:42.545Z,4.60
2023-10-23T11:31:08.945Z,4.60
2023-10-23T11:33:35.312Z,5.07
2023-10-23T11:36:01.722Z,4.85
2023-10-23T11:38:28.103Z,4.97
2023-10-23T11:40:54.448Z,4.78
2023-10-23T11:43:20.789Z,4.78
2023-10-23T11:45:47.202Z,4.57
2023-10-23T11:48:13.665Z,4.63
2023-10-23T11:50:40.378Z,4.68
2023-10-23T11:53:06.687Z,4.35
2023-10-23T11:55:33.189Z,4.43
2023-10-23T11:57:59.556Z,5.00
2023-10-23T12:00:25.929Z,4.60
2023-10-23T12:02:59.449Z,5.00
2023-10-23T12:05:26.098Z,4.70
2023-10-23T12:07:52.435Z,5.10
2023-10-23T12:10:18.885Z,4.38
2023-10-23T12:12:45.285Z,4.15
2023-10-23T12:15:11.761Z,4.50
2023-10-23T12:17:38.094Z,4.43
2023-10-23T12:20:04.462Z,5.05
2023-10-23T12:22:30.747Z,4.63
2023-10-23T12:24:57.084Z,4.22
2023-10-23T12:27:23.418Z,4.40
2023-10-23T12:29:49.732Z,4.90
2023-10-23T12:33:12.188Z,4.40
2023-10-23T12:35:02.522Z,4.85
2023-10-23T12:37:28.903Z,4.15
2023-10-23T12:39:55.272Z,4.10
2023-10-23T12:42:21.530Z,4.20
2023-10-23T12:44:47.840Z,4.32
2023-10-23T12:47:14.323Z,4.35
2023-10-23T12:49:40.744Z,4.40
2023-10-23T12:52:07.297Z,4.38
2023-10-23T12:54:33.565Z,4.00
2023-10-23T12:56:59.829Z,3.97
2023-10-23T12:59:26.078Z,4.57
2023-10-23T13:01:52.453Z,4.32
2023-10-23T13:04:18.827Z,4.32
2023-10-23T13:06:45.525Z,4.28
2023-10-23T13:09:11.843Z,4.15
2023-10-23T13:11:38.308Z,4.05
2023-10-23T13:14:04.581Z,3.90
2023-10-23T13:16:31.207Z,4.20
2023-10-23T13:18:57.764Z,4.10
2023-10-23T13:21:31.188Z,4.20
2023-10-23T13:24:01.015Z,3.95
2023-10-23T13:26:27.992Z,4.43
2023-10-23T13:28:54.311Z,4.50
2023-10-23T13:31:21.000Z,4.35
2023-10-23T13:33:47.493Z,4.00
2023-10-23T13:36:13.813Z,4.30
2023-10-23T13:38:40.176Z,3.70
2023-10-23T13:41:06.528Z,4.15
2023-10-23T13:43:32.791Z,3.53
2023-10-23T13:45:59.385Z,3.88
2023-10-23T13:48:25.990Z,3.90
2023-10-23T13:50:52.259Z,3.80
2023-10-23T13:53:18.846Z,3.65
2023-10-23T13:55:45.428Z,3.75
2023-10-23T13:58:11.816Z,3.90
2023-10-23T14:00:38.117Z,3.70
2023-10-23T14:03:04.434Z,3.70
2023-10-23T14:05:30.816Z,3.78
2023-10-23T14:07:57.078Z,3.97
2023-10-23T14:10:23.429Z,3.65
2023-10-23T14:12:49.769Z,3.35
2023-10-23T14:15:16.078Z,3.65
2023-10-23T14:17:42.382Z,3.55
2023-10-23T14:20:08.782Z,3.50
2023-10-23T14:22:35.104Z,3.67
2023-10-23T14:25:01.440Z,3.80
2023-10-23T14:27:27.928Z,3.30
2023-10-23T14:29:54.199Z,3.70
2023-10-23T14:32:20.555Z,3.53
2023-10-23T14:34:46.848Z,3.40
2023-10-23T14:37:13.457Z,3.88
2023-10-23T14:39:40.119Z,3.20
2023-10-23T14:42:06.512Z,3.53
2023-10-23T14:44:32.785Z,3.67
2023-10-23T14:46:59.152Z,3.35
2023-10-23T14:49:25.603Z,3.90
2023-10-23T14:51:52.258Z,3.15
2023-10-23T14:54:20.794Z,3.50
2023-10-23T14:56:47.084Z,3.40
2023-10-23T14:59:13.429Z,3.33
2023-10-23T15:01:39.796Z,3.30
2023-10-23T15:04:06.177Z,3.60
2023-10-23T15:06:32.599Z,3.28
2023-10-23T15:08:58.883Z,3.60
2023-10-23T15:11:25.262Z,3.65
2023-10-23T15:13:51.822Z,3.13
2023-10-23T15:16:23.800Z,3.65
2023-10-23T15:18:50.253Z,3.53
2023-10-23T15:21:16.952Z,3.47
2023-10-23T15:23:43.230Z,3.10
2023-10-23T15:26:09.513Z,3.55
2023-10-23T15:28:37.164Z,3.58
2023-10-23T15:31:03.709Z,3.25
2023-10-23T15:33:30.197Z,2.90
2023-10-23T15:35:56.492Z,2.92
2023-10-23T15:38:22.811Z,2.20
2023-10-23T15:40:49.283Z,2.33
2023-10-23T15:43:15.644Z,2.63
2023-10-23T15:45:42.001Z,2.35
2023-10-23T15:48:08.525Z,2.95
2023-10-23T15:50:34.798Z,6.78
2023-10-23T15:53:01.072Z,32.60
2023-10-23T15:55:27.327Z,7.72
2023-10-23T15:57:53.971Z,8.98
2023-10-23T16:00:20.285Z,10.70
2023-10-23T16:02:46.569Z,9.00
2023-10-23T16:05:12.968Z,9.85
2023-10-23T16:07:39.297Z,8.60
2023-10-23T16:10:05.817Z,8.93
2023-10-23T16:12:36.935Z,17.33
2023-10-23T16:15:03.649Z,21.25
2023-10-23T16:17:30.005Z,166.00
2023-10-23T16:19:56.734Z,160.35
2023-10-23T16:22:23.131Z,167.75
2023-10-23T16:24:49.429Z,162.88
2023-10-23T16:27:15.772Z,153.32
2023-10-23T16:29:42.304Z,155.15
2023-10-23T16:32:08.703Z,152.73
2023-10-23T16:34:41.412Z,150.75
2023-10-23T16:37:07.934Z,155.98
2023-10-23T16:39:34.268Z,208.95
2023-10-23T16:42:00.613Z,299.75
2023-10-23T16:44:37.552Z,301.38
2023-10-23T16:47:10.934Z,285.35
2023-10-23T16:49:37.246Z,288.52
2023-10-23T16:52:03.599Z,284.25
2023-10-23T16:54:29.939Z,285.35
2023-10-23T16:56:56.209Z,284.45
2023-10-23T16:59:22.551Z,325.13
2023-10-23T17:01:48.920Z,276.15
2023-10-23T17:04:15.391Z,366.10
2023-10-23T17:06:41.764Z,338.33
2023-10-23T17:09:08.120Z,307.60
2023-10-23T17:11:34.373Z,279.83
2023-10-23T17:14:00.619Z,308.70
2023-10-23T17:16:27.116Z,378.85
2023-10-23T17:18:53.650Z,357.58
2023-10-23T17:21:20.097Z,331.80
2023-10-23T17:23:46.348Z,316.35
2023-10-23T17:26:12.595Z,296.05
2023-10-23T17:28:38.877Z,282.75
2023-10-23T17:31:05.345Z,274.00
2023-10-23T17:33:32.148Z,254.02
2023-10-23T17:35:58.633Z,247.98
2023-10-23T17:38:24.883Z,257.80
2023-10-23T17:40:51.145Z,496.50
2023-10-23T17:43:17.430Z,429.25
2023-10-23T17:45:43.882Z,382.60
2023-10-23T17:48:10.200Z,360.08
2023-10-23T17:50:36.510Z,352.50
2023-10-23T17:53:02.760Z,343.33
2023-10-23T17:55:29.052Z,337.77
2023-10-23T17:57:55.434Z,328.88
2023-10-23T18:00:21.874Z,328.92
2023-10-23T18:02:48.382Z,322.95
2023-10-23T18:05:14.742Z,317.02
2023-10-23T18:07:41.097Z,311.05
2023-10-23T18:10:07.598Z,313.15
2023-10-23T18:12:38.408Z,314.83
2023-10-23T18:15:05.082Z,305.02
2023-10-23T18:17:39.801Z,306.15
2023-10-23T18:20:06.069Z,303.50
2023-10-23T18:22:32.787Z,305.20
2023-10-23T18:24:59.128Z,297.40
2023-10-23T18:27:25.684Z,295.90
2023-10-23T18:29:51.989Z,283.08
2023-10-23T18:32:18.585Z,285.60
2023-10-23T18:34:45.008Z,286.48
2023-10-23T18:37:11.365Z,286.10
2023-10-23T18:39:37.775Z,286.00
2023-10-23T18:42:04.330Z,278.13
2023-10-23T18:44:30.730Z,279.38
2023-10-23T18:46:57.153Z,271.48
2023-10-23T18:49:23.605Z,266.58
2023-10-23T18:51:59.852Z,267.70
2023-10-23T18:54:36.863Z,259.90
2023-10-23T18:57:13.089Z,260.65
2023-10-23T18:59:39.713Z,260.83
2023-10-23T19:02:09.625Z,256.83
2023-10-23T19:04:45.920Z,246.30
2023-10-23T19:07:22.214Z,250.88
2023-10-23T19:09:58.595Z,240.50
2023-10-23T19:12:34.879Z,239.38
2023-10-23T19:15:11.128Z,240.50
2023-10-23T19:17:41.653Z,233.90
2023-10-23T19:20:18.158Z,237.98
2023-10-23T19:22:59.256Z,227.75
2023-10-23T19:25:35.556Z,226.55
2023-10-23T19:28:11.940Z,228.52
2023-10-23T19:30:38.500Z,216.18
2023-10-23T19:33:08.709Z,208.63
2023-10-23T19:35:35.002Z,211.07
2023-10-23T19:38:01.296Z,206.40
2023-10-23T19:40:27.648Z,208.00
2023-10-23T19:42:59.230Z,203.10
2023-10-23T19:45:25.505Z,199.75
2023-10-23T19:47:51.810Z,202.55
2023-10-23T19:50:18.174Z,201.15
2023-10-23T19:52:44.473Z,195.60
2023-10-23T19:55:43.778Z,189.48
2023-10-23T19:57:57.348Z,189.75
2023-10-23T20:00:23.627Z,184.32
2023-10-23T20:02:49.999Z,191.35
2023-10-23T20:05:16.517Z,181.43
2023-10-23T20:07:42.900Z,178.82
2023-10-23T20:10:09.289Z,174.27
2023-10-23T20:12:35.629Z,169.07
2023-10-23T20:15:01.936Z,177.18
2023-10-23T20:17:28.293Z,171.85
2023-10-23T20:19:54.704Z,169.18
2023-10-23T20:22:21.220Z,171.32
2023-10-23T20:24:47.775Z,167.70
2023-10-23T20:27:14.272Z,158.65
2023-10-23T20:29:40.733Z,159.10
2023-10-23T20:32:07.219Z,155.00
2023-10-23T20:34:33.572Z,156.32
2023-10-23T20:36:59.994Z,154.43
2023-10-23T20:39:26.310Z,152.55
2023-10-23T20:41:52.617Z,155.55
2023-10-23T20:44:18.875Z,148.65
2023-10-23T20:46:45.251Z,150.48
2023-10-23T20:49:11.654Z,150.85
2023-10-23T20:51:37.962Z,141.88
2023-10-23T20:54:04.642Z,148.35
2023-10-23T20:56:30.957Z,142.00
2023-10-23T20:58:57.283Z,141.65
2023-10-23T21:01:24.650Z,140.90
2023-10-23T21:03:51.078Z,139.90
2023-10-23T21:06:17.331Z,135.82
2023-10-23T21:08:43.635Z,138.60
2023-10-23T21:11:09.870Z,133.68
2023-10-23T21:13:38.071Z,131.80
2023-10-23T21:16:04.457Z,133.30
2023-10-23T21:18:31.001Z,131.50
2023-10-23T21:20:57.562Z,130.80
2023-10-23T21:23:23.831Z,129.75
2023-10-23T21:25:50.225Z,132.15
2023-10-23T21:28:16.569Z,123.70
2023-10-23T21:30:42.907Z,124.18
2023-10-23T21:33:09.177Z,124.82
2023-10-23T21:35:35.452Z,121.70
2023-10-23T21:38:01.778Z,122.85
2023-10-23T21:40:28.064Z,121.28
2023-10-23T21:42:54.332Z,119.25
2023-10-23T21:45:20.593Z,115.50
2023-10-23T21:47:46.974Z,116.70
2023-10-23T21:50:13.489Z,116.57
2023-10-23T21:52:39.788Z,114.57
2023-10-23T21:55:18.886Z,111.72
2023-10-23T21:57:45.772Z,116.53
2023-10-23T22:00:12.062Z,109.38
2023-10-23T22:02:38.494Z,108.35
2023-10-23T22:05:05.107Z,113.60
2023-10-23T22:07:31.392Z,113.55
2023-10-23T22:09:57.739Z,108.45
2023-10-23T22:12:24.017Z,106.03
2023-10-23T22:14:50.433Z,103.43
2023-10-23T22:17:16.879Z,104.75
2023-10-23T22:19:43.769Z,101.68
2023-10-23T22:22:10.206Z,97.25
2023-10-23T22:24:36.529Z,100.82
2023-10-23T22:27:02.830Z,99.43
2023-10-23T22:29:29.092Z,98.93
2023-10-23T22:31:55.454Z,94.32
2023-10-23T22:34:21.885Z,94.78
2023-10-23T22:36:48.260Z,88.35
2023-10-23T22:39:34.496Z,94.00
2023-10-23T22:42:00.926Z,89.82
2023-10-23T22:44:27.171Z,93.35
2023-10-23T22:46:53.889Z,91.10
2023-10-23T22:49:20.277Z,88.18
2023-10-23T22:51:46.610Z,89.47
2023-10-23T22:54:12.933Z,87.95
2023-10-23T22:56:39.217Z,88.63
2023-10-23T22:59:05.520Z,84.15
2023-10-23T23:01:31.961Z,85.22
2023-10-23T23:03:58.315Z,84.50
2023-10-23T23:06:24.595Z,83.28
2023-10-23T23:08:50.893Z,83.13
2023-10-23T23:11:17.161Z,84.43
2023-10-23T23:13:43.518Z,79.70
2023-10-23T23:16:09.908Z,78.28
2023-10-23T23:18:46.195Z,79.60
2023-10-23T23:21:17.248Z,76.68
2023-10-23T23:23:43.531Z,79.57
2023-10-23T23:26:10.004Z,74.13
2023-10-23T23:28:36.286Z,72.80
2023-10-23T23:31:02.562Z,77.05
2023-10-23T23:33:28.800Z,74.93
2023-10-23T23:35:55.064Z,72.15
2023-10-23T23:38:21.390Z,71.35
2023-10-23T23:40:47.886Z,71.20
2023-10-23T23:43:14.234Z,73.75
2023-10-23T23:45:40.840Z,71.47
2023-10-23T23:48:07.147Z,70.63
2023-10-23T23:50:33.604Z,69.35
2023-10-23T23:52:59.941Z,69.10
2023-10-23T23:55:26.401Z,68.90
2023-10-23T23:57:52.643Z,64.70
